sensor_id;sensor_type;location;lat;lon;timestamp;P1;durP1;ratioP1;P2;durP2;ratioP2
84711;SDS011;74937;44.534;18.684;2024-01-16T00:01:14;37.38;;;14.50;;
84711;SDS011;74937;44.534;18.684;2024-01-16T00:03:41;49.10;;;21.75;;
84711;SDS011;74937;44.534;18.684;2024-01-16T00:06:07;30.02;;;13.98;;
84711;SDS011;74937;44.534;18.684;2024-01-16T00:08:33;31.25;;;12.20;;
84711;SDS011;74937;44.534;18.684;2024-01-16T00:10:59;26.88;;;11.55;;
84711;SDS011;74937;44.534;18.684;2024-01-16T00:13:26;26.20;;;10.52;;
84711;SDS011;74937;44.534;18.684;2024-01-16T00:15:52;17.85;;;8.82;;
84711;SDS011;74937;44.534;18.684;2024-01-16T00:18:18;18.02;;;8.05;;
84711;SDS011;74937;44.534;18.684;2024-01-16T00:20:44;15.05;;;7.97;;
84711;SDS011;74937;44.534;18.684;2024-01-16T00:23:09;14.85;;;7.75;;
84711;SDS011;74937;44.534;18.684;2024-01-16T00:25:35;12.07;;;6.65;;
84711;SDS011;74937;44.534;18.684;2024-01-16T00:28:01;12.45;;;5.63;;
84711;SDS011;74937;44.534;18.684;2024-01-16T00:30:27;12.75;;;6.72;;
84711;SDS011;74937;44.534;18.684;2024-01-16T00:32:53;15.18;;;7.07;;
84711;SDS011;74937;44.534;18.684;2024-01-16T00:35:19;12.32;;;6.78;;
84711;SDS011;74937;44.534;18.684;2024-01-16T00:37:44;15.30;;;6.40;;
84711;SDS011;74937;44.534;18.684;2024-01-16T00:40:10;19.17;;;7.07;;
84711;SDS011;74937;44.534;18.684;2024-01-16T00:42:36;20.83;;;9.68;;
84711;SDS011;74937;44.534;18.684;2024-01-16T00:45:02;49.38;;;17.35;;
84711;SDS011;74937;44.534;18.684;2024-01-16T00:47:28;61.08;;;21.13;;
84711;SDS011;74937;44.534;18.684;2024-01-16T00:49:53;51.85;;;20.08;;
84711;SDS011;74937;44.534;18.684;2024-01-16T00:52:19;42.20;;;17.38;;
84711;SDS011;74937;44.534;18.684;2024-01-16T00:54:45;44.28;;;18.67;;
84711;SDS011;74937;44.534;18.684;2024-01-16T00:57:10;46.72;;;20.48;;
84711;SDS011;74937;44.534;18.684;2024-01-16T00:59:36;38.35;;;18.45;;
84711;SDS011;74937;44.534;18.684;2024-01-16T01:02:03;42.70;;;18.45;;
84711;SDS011;74937;44.534;18.684;2024-01-16T01:04:29;35.78;;;17.10;;
84711;SDS011;74937;44.534;18.684;2024-01-16T01:06:55;40.10;;;18.17;;
84711;SDS011;74937;44.534;18.684;2024-01-16T01:09:21;37.88;;;17.63;;
84711;SDS011;74937;44.534;18.684;2024-01-16T01:11:46;37.95;;;17.50;;
84711;SDS011;74937;44.534;18.684;2024-01-16T01:14:12;39.80;;;18.33;;
84711;SDS011;74937;44.534;18.684;2024-01-16T01:16:38;46.25;;;20.90;;
84711;SDS011;74937;44.534;18.684;2024-01-16T01:19:05;45.70;;;21.90;;
84711;SDS011;74937;44.534;18.684;2024-01-16T01:21:30;38.75;;;18.58;;
84711;SDS011;74937;44.534;18.684;2024-01-16T01:23:56;28.92;;;14.95;;
84711;SDS011;74937;44.534;18.684;2024-01-16T01:26:22;27.85;;;14.18;;
84711;SDS011;74937;44.534;18.684;2024-01-16T01:28:48;23.20;;;12.07;;
84711;SDS011;74937;44.534;18.684;2024-01-16T01:31:13;25.52;;;12.93;;
84711;SDS011;74937;44.534;18.684;2024-01-16T01:33:40;29.80;;;12.95;;
84711;SDS011;74937;44.534;18.684;2024-01-16T01:38:31;29.58;;;14.75;;
84711;SDS011;74937;44.534;18.684;2024-01-16T01:40:57;35.80;;;16.70;;
84711;SDS011;74937;44.534;18.684;2024-01-16T01:43:24;37.72;;;17.55;;
84711;SDS011;74937;44.534;18.684;2024-01-16T01:46:02;45.95;;;21.38;;
84711;SDS011;74937;44.534;18.684;2024-01-16T01:48:46;45.15;;;20.98;;
84711;SDS011;74937;44.534;18.684;2024-01-16T01:51:19;44.38;;;20.35;;
84711;SDS011;74937;44.534;18.684;2024-01-16T01:53:46;42.22;;;20.15;;
84711;SDS011;74937;44.534;18.684;2024-01-16T01:56:15;45.50;;;20.42;;
84711;SDS011;74937;44.534;18.684;2024-01-16T01:58:43;46.03;;;19.95;;
84711;SDS011;74937;44.534;18.684;2024-01-16T02:01:11;45.22;;;21.10;;
84711;SDS011;74937;44.534;18.684;2024-01-16T02:03:43;42.60;;;19.35;;
84711;SDS011;74937;44.534;18.684;2024-01-16T02:06:10;49.05;;;23.17;;
84711;SDS011;74937;44.534;18.684;2024-01-16T02:08:38;72.70;;;34.30;;
84711;SDS011;74937;44.534;18.684;2024-01-16T02:11:05;85.72;;;40.67;;
84711;SDS011;74937;44.534;18.684;2024-01-16T02:13:31;72.70;;;33.63;;
84711;SDS011;74937;44.534;18.684;2024-01-16T02:15:57;71.18;;;35.28;;
84711;SDS011;74937;44.534;18.684;2024-01-16T02:18:22;69.95;;;31.17;;
84711;SDS011;74937;44.534;18.684;2024-01-16T02:20:48;58.47;;;28.45;;
84711;SDS011;74937;44.534;18.684;2024-01-16T02:23:14;57.13;;;27.55;;
84711;SDS011;74937;44.534;18.684;2024-01-16T02:25:43;50.58;;;26.05;;
84711;SDS011;74937;44.534;18.684;2024-01-16T02:28:09;53.00;;;22.92;;
84711;SDS011;74937;44.534;18.684;2024-01-16T02:30:35;49.95;;;23.40;;
84711;SDS011;74937;44.534;18.684;2024-01-16T02:33:01;47.00;;;23.13;;
84711;SDS011;74937;44.534;18.684;2024-01-16T02:35:28;49.50;;;24.55;;
84711;SDS011;74937;44.534;18.684;2024-01-16T02:37:54;57.20;;;27.65;;
84711;SDS011;74937;44.534;18.684;2024-01-16T02:42:46;47.65;;;24.88;;
84711;SDS011;74937;44.534;18.684;2024-01-16T02:45:13;43.90;;;22.10;;
84711;SDS011;74937;44.534;18.684;2024-01-16T02:47:38;52.72;;;24.58;;
84711;SDS011;74937;44.534;18.684;2024-01-16T02:50:04;52.08;;;24.25;;
84711;SDS011;74937;44.534;18.684;2024-01-16T02:52:31;53.38;;;26.13;;
84711;SDS011;74937;44.534;18.684;2024-01-16T02:54:56;48.15;;;23.17;;
84711;SDS011;74937;44.534;18.684;2024-01-16T02:57:22;51.22;;;24.83;;
84711;SDS011;74937;44.534;18.684;2024-01-16T02:59:48;47.03;;;24.25;;
84711;SDS011;74937;44.534;18.684;2024-01-16T03:02:14;50.15;;;25.40;;
84711;SDS011;74937;44.534;18.684;2024-01-16T03:04:39;54.50;;;24.65;;
84711;SDS011;74937;44.534;18.684;2024-01-16T03:07:06;47.08;;;24.52;;
84711;SDS011;74937;44.534;18.684;2024-01-16T03:09:32;59.95;;;28.02;;
84711;SDS011;74937;44.534;18.684;2024-01-16T03:11:58;53.15;;;25.27;;
84711;SDS011;74937;44.534;18.684;2024-01-16T03:14:24;51.33;;;25.80;;
84711;SDS011;74937;44.534;18.684;2024-01-16T03:16:50;51.65;;;24.98;;
84711;SDS011;74937;44.534;18.684;2024-01-16T03:19:16;52.03;;;26.50;;
84711;SDS011;74937;44.534;18.684;2024-01-16T03:21:42;48.83;;;24.08;;
84711;SDS011;74937;44.534;18.684;2024-01-16T03:24:08;54.25;;;26.52;;
84711;SDS011;74937;44.534;18.684;2024-01-16T03:26:36;52.45;;;25.00;;
84711;SDS011;74937;44.534;18.684;2024-01-16T03:29:03;49.53;;;24.58;;
84711;SDS011;74937;44.534;18.684;2024-01-16T03:31:30;54.00;;;25.55;;
84711;SDS011;74937;44.534;18.684;2024-01-16T03:33:55;49.15;;;23.70;;
84711;SDS011;74937;44.534;18.684;2024-01-16T03:36:21;54.13;;;26.33;;
84711;SDS011;74937;44.534;18.684;2024-01-16T03:38:47;49.97;;;25.52;;
84711;SDS011;74937;44.534;18.684;2024-01-16T03:41:12;48.58;;;26.20;;
84711;SDS011;74937;44.534;18.684;2024-01-16T03:43:39;51.88;;;25.00;;
84711;SDS011;74937;44.534;18.684;2024-01-16T03:46:05;50.35;;;24.33;;
84711;SDS011;74937;44.534;18.684;2024-01-16T03:48:31;58.53;;;27.27;;
84711;SDS011;74937;44.534;18.684;2024-01-16T03:50:57;53.08;;;25.50;;
84711;SDS011;74937;44.534;18.684;2024-01-16T03:53:23;30.60;;;16.02;;
84711;SDS011;74937;44.534;18.684;2024-01-16T03:55:49;30.23;;;16.10;;
84711;SDS011;74937;44.534;18.684;2024-01-16T03:58:15;46.25;;;24.42;;
84711;SDS011;74937;44.534;18.684;2024-01-16T04:00:41;48.58;;;23.92;;
84711;SDS011;74937;44.534;18.684;2024-01-16T04:03:07;48.13;;;23.55;;
84711;SDS011;74937;44.534;18.684;2024-01-16T04:05:34;45.58;;;23.02;;
84711;SDS011;74937;44.534;18.684;2024-01-16T04:08:00;43.90;;;22.42;;
84711;SDS011;74937;44.534;18.684;2024-01-16T04:10:26;45.10;;;22.75;;
84711;SDS011;74937;44.534;18.684;2024-01-16T04:12:51;34.08;;;16.95;;
84711;SDS011;74937;44.534;18.684;2024-01-16T04:15:17;32.28;;;16.35;;
84711;SDS011;74937;44.534;18.684;2024-01-16T04:17:43;33.17;;;15.95;;
84711;SDS011;74937;44.534;18.684;2024-01-16T04:20:09;27.00;;;15.45;;
84711;SDS011;74937;44.534;18.684;2024-01-16T04:22:35;30.65;;;15.90;;
84711;SDS011;74937;44.534;18.684;2024-01-16T04:25:01;21.70;;;11.57;;
84711;SDS011;74937;44.534;18.684;2024-01-16T04:27:30;28.48;;;13.25;;
84711;SDS011;74937;44.534;18.684;2024-01-16T04:29:57;22.95;;;12.77;;
84711;SDS011;74937;44.534;18.684;2024-01-16T04:32:22;25.63;;;13.07;;
84711;SDS011;74937;44.534;18.684;2024-01-16T04:34:48;26.45;;;13.63;;
84711;SDS011;74937;44.534;18.684;2024-01-16T04:37:14;23.67;;;12.90;;
84711;SDS011;74937;44.534;18.684;2024-01-16T04:39:39;28.40;;;14.90;;
84711;SDS011;74937;44.534;18.684;2024-01-16T04:42:05;37.05;;;17.60;;
84711;SDS011;74937;44.534;18.684;2024-01-16T04:44:31;35.63;;;18.08;;
84711;SDS011;74937;44.534;18.684;2024-01-16T04:46:56;39.17;;;19.35;;
84711;SDS011;74937;44.534;18.684;2024-01-16T04:49:22;35.38;;;17.70;;
84711;SDS011;74937;44.534;18.684;2024-01-16T04:51:48;32.75;;;16.38;;
84711;SDS011;74937;44.534;18.684;2024-01-16T04:54:13;30.73;;;17.15;;
84711;SDS011;74937;44.534;18.684;2024-01-16T04:56:39;31.08;;;16.33;;
84711;SDS011;74937;44.534;18.684;2024-01-16T04:59:04;33.78;;;16.10;;
84711;SDS011;74937;44.534;18.684;2024-01-16T05:01:30;32.63;;;17.08;;
84711;SDS011;74937;44.534;18.684;2024-01-16T05:03:56;35.80;;;15.80;;
84711;SDS011;74937;44.534;18.684;2024-01-16T05:06:22;31.60;;;15.70;;
84711;SDS011;74937;44.534;18.684;2024-01-16T05:08:47;26.77;;;14.10;;
84711;SDS011;74937;44.534;18.684;2024-01-16T05:11:13;29.38;;;13.98;;
84711;SDS011;74937;44.534;18.684;2024-01-16T05:13:39;25.67;;;15.00;;
84711;SDS011;74937;44.534;18.684;2024-01-16T05:16:05;25.67;;;14.95;;
84711;SDS011;74937;44.534;18.684;2024-01-16T05:18:31;27.50;;;15.10;;
84711;SDS011;74937;44.534;18.684;2024-01-16T05:20:58;32.08;;;15.13;;
84711;SDS011;74937;44.534;18.684;2024-01-16T05:23:24;31.98;;;16.20;;
84711;SDS011;74937;44.534;18.684;2024-01-16T05:25:49;32.90;;;16.77;;
84711;SDS011;74937;44.534;18.684;2024-01-16T05:28:15;36.85;;;18.13;;
84711;SDS011;74937;44.534;18.684;2024-01-16T05:30:43;49.85;;;24.80;;
84711;SDS011;74937;44.534;18.684;2024-01-16T05:33:09;45.53;;;21.75;;
84711;SDS011;74937;44.534;18.684;2024-01-16T05:35:35;52.00;;;23.30;;
84711;SDS011;74937;44.534;18.684;2024-01-16T05:38:00;48.63;;;23.40;;
84711;SDS011;74937;44.534;18.684;2024-01-16T05:40:26;50.17;;;24.27;;
84711;SDS011;74937;44.534;18.684;2024-01-16T05:42:52;62.95;;;27.23;;
84711;SDS011;74937;44.534;18.684;2024-01-16T05:45:17;59.50;;;30.42;;
84711;SDS011;74937;44.534;18.684;2024-01-16T05:47:43;86.15;;;36.50;;
84711;SDS011;74937;44.534;18.684;2024-01-16T05:50:10;70.40;;;33.75;;
84711;SDS011;74937;44.534;18.684;2024-01-16T05:52:35;69.15;;;32.45;;
84711;SDS011;74937;44.534;18.684;2024-01-16T05:55:01;64.38;;;31.48;;
84711;SDS011;74937;44.534;18.684;2024-01-16T05:57:28;67.55;;;33.08;;
84711;SDS011;74937;44.534;18.684;2024-01-16T05:59:57;75.32;;;34.42;;
84711;SDS011;74937;44.534;18.684;2024-01-16T06:02:23;67.13;;;32.08;;
84711;SDS011;74937;44.534;18.684;2024-01-16T06:04:49;64.40;;;30.63;;
84711;SDS011;74937;44.534;18.684;2024-01-16T06:07:15;62.15;;;31.23;;
84711;SDS011;74937;44.534;18.684;2024-01-16T06:09:41;61.60;;;30.90;;
84711;SDS011;74937;44.534;18.684;2024-01-16T06:12:07;77.03;;;34.95;;
84711;SDS011;74937;44.534;18.684;2024-01-16T06:14:33;70.30;;;31.90;;
84711;SDS011;74937;44.534;18.684;2024-01-16T06:17:00;64.63;;;30.08;;
84711;SDS011;74937;44.534;18.684;2024-01-16T06:19:26;59.55;;;29.77;;
84711;SDS011;74937;44.534;18.684;2024-01-16T06:21:51;54.40;;;24.90;;
84711;SDS011;74937;44.534;18.684;2024-01-16T06:24:17;58.55;;;25.88;;
84711;SDS011;74937;44.534;18.684;2024-01-16T06:26:43;54.28;;;23.85;;
84711;SDS011;74937;44.534;18.684;2024-01-16T06:29:09;50.33;;;24.05;;
84711;SDS011;74937;44.534;18.684;2024-01-16T06:31:34;71.93;;;32.72;;
84711;SDS011;74937;44.534;18.684;2024-01-16T06:34:00;112.78;;;47.40;;
84711;SDS011;74937;44.534;18.684;2024-01-16T06:36:26;105.05;;;45.50;;
84711;SDS011;74937;44.534;18.684;2024-01-16T06:38:52;95.38;;;42.75;;
84711;SDS011;74937;44.534;18.684;2024-01-16T06:41:17;87.80;;;37.35;;
84711;SDS011;74937;44.534;18.684;2024-01-16T06:43:43;76.10;;;32.92;;
84711;SDS011;74937;44.534;18.684;2024-01-16T06:46:09;58.30;;;28.08;;
84711;SDS011;74937;44.534;18.684;2024-01-16T06:48:35;77.65;;;36.58;;
84711;SDS011;74937;44.534;18.684;2024-01-16T06:51:04;134.02;;;51.92;;
84711;SDS011;74937;44.534;18.684;2024-01-16T06:53:33;153.65;;;65.57;;
84711;SDS011;74937;44.534;18.684;2024-01-16T06:55:58;172.80;;;72.47;;
84711;SDS011;74937;44.534;18.684;2024-01-16T06:58:24;169.43;;;74.68;;
84711;SDS011;74937;44.534;18.684;2024-01-16T07:00:50;156.30;;;64.22;;
84711;SDS011;74937;44.534;18.684;2024-01-16T07:03:15;159.40;;;69.43;;
84711;SDS011;74937;44.534;18.684;2024-01-16T07:05:42;155.55;;;64.72;;
84711;SDS011;74937;44.534;18.684;2024-01-16T07:08:08;94.38;;;45.13;;
84711;SDS011;74937;44.534;18.684;2024-01-16T07:10:35;85.05;;;39.83;;
84711;SDS011;74937;44.534;18.684;2024-01-16T07:13:01;78.18;;;40.25;;
84711;SDS011;74937;44.534;18.684;2024-01-16T07:15:27;69.38;;;33.60;;
84711;SDS011;74937;44.534;18.684;2024-01-16T07:17:53;68.47;;;33.15;;
84711;SDS011;74937;44.534;18.684;2024-01-16T07:20:19;61.00;;;31.48;;
84711;SDS011;74937;44.534;18.684;2024-01-16T07:22:45;60.67;;;28.80;;
84711;SDS011;74937;44.534;18.684;2024-01-16T07:25:11;68.43;;;33.20;;
84711;SDS011;74937;44.534;18.684;2024-01-16T07:27:37;66.70;;;34.63;;
84711;SDS011;74937;44.534;18.684;2024-01-16T07:30:05;68.45;;;34.33;;
84711;SDS011;74937;44.534;18.684;2024-01-16T07:32:32;75.93;;;37.85;;
84711;SDS011;74937;44.534;18.684;2024-01-16T07:34:58;77.75;;;38.40;;
84711;SDS011;74937;44.534;18.684;2024-01-16T07:37:24;92.43;;;44.95;;
84711;SDS011;74937;44.534;18.684;2024-01-16T07:39:50;78.43;;;40.45;;
84711;SDS011;74937;44.534;18.684;2024-01-16T07:42:15;73.82;;;38.40;;
84711;SDS011;74937;44.534;18.684;2024-01-16T07:44:41;94.88;;;45.88;;
84711;SDS011;74937;44.534;18.684;2024-01-16T07:47:07;112.38;;;54.25;;
84711;SDS011;74937;44.534;18.684;2024-01-16T07:49:33;80.85;;;40.70;;
84711;SDS011;74937;44.534;18.684;2024-01-16T07:51:59;78.13;;;39.67;;
84711;SDS011;74937;44.534;18.684;2024-01-16T07:54:25;92.25;;;46.53;;
84711;SDS011;74937;44.534;18.684;2024-01-16T07:56:51;97.68;;;50.28;;
84711;SDS011;74937;44.534;18.684;2024-01-16T07:59:17;86.60;;;42.05;;
84711;SDS011;74937;44.534;18.684;2024-01-16T08:01:43;94.30;;;43.58;;
84711;SDS011;74937;44.534;18.684;2024-01-16T08:04:08;78.25;;;37.33;;
84711;SDS011;74937;44.534;18.684;2024-01-16T08:06:34;72.63;;;37.80;;
84711;SDS011;74937;44.534;18.684;2024-01-16T08:09:00;60.78;;;32.78;;
84711;SDS011;74937;44.534;18.684;2024-01-16T08:11:25;63.10;;;32.53;;
84711;SDS011;74937;44.534;18.684;2024-01-16T08:13:51;57.65;;;30.20;;
84711;SDS011;74937;44.534;18.684;2024-01-16T08:16:17;56.78;;;30.08;;
84711;SDS011;74937;44.534;18.684;2024-01-16T08:18:42;52.08;;;27.02;;
84711;SDS011;74937;44.534;18.684;2024-01-16T08:21:08;54.88;;;28.33;;
84711;SDS011;74937;44.534;18.684;2024-01-16T08:23:34;51.80;;;29.35;;
84711;SDS011;74937;44.534;18.684;2024-01-16T08:26:00;69.72;;;34.75;;
84711;SDS011;74937;44.534;18.684;2024-01-16T08:28:26;82.03;;;41.30;;
84711;SDS011;74937;44.534;18.684;2024-01-16T08:30:52;83.50;;;40.95;;
84711;SDS011;74937;44.534;18.684;2024-01-16T08:33:18;94.50;;;45.80;;
84711;SDS011;74937;44.534;18.684;2024-01-16T08:35:44;80.25;;;41.33;;
84711;SDS011;74937;44.534;18.684;2024-01-16T08:38:10;102.53;;;47.67;;
84711;SDS011;74937;44.534;18.684;2024-01-16T08:40:36;148.60;;;74.50;;
84711;SDS011;74937;44.534;18.684;2024-01-16T08:43:01;157.18;;;77.10;;
84711;SDS011;74937;44.534;18.684;2024-01-16T08:45:28;105.10;;;55.15;;
84711;SDS011;74937;44.534;18.684;2024-01-16T08:47:54;104.03;;;56.78;;
84711;SDS011;74937;44.534;18.684;2024-01-16T08:50:20;109.32;;;57.10;;
84711;SDS011;74937;44.534;18.684;2024-01-16T08:52:46;90.70;;;45.08;;
84711;SDS011;74937;44.534;18.684;2024-01-16T08:55:12;98.78;;;50.63;;
84711;SDS011;74937;44.534;18.684;2024-01-16T08:57:37;112.22;;;57.83;;
84711;SDS011;74937;44.534;18.684;2024-01-16T09:00:07;124.53;;;61.05;;
84711;SDS011;74937;44.534;18.684;2024-01-16T09:02:37;125.72;;;64.68;;
84711;SDS011;74937;44.534;18.684;2024-01-16T09:05:03;147.30;;;70.68;;
84711;SDS011;74937;44.534;18.684;2024-01-16T09:07:30;157.45;;;76.13;;
84711;SDS011;74937;44.534;18.684;2024-01-16T09:09:56;139.15;;;68.20;;
84711;SDS011;74937;44.534;18.684;2024-01-16T09:12:22;112.28;;;58.00;;
84711;SDS011;74937;44.534;18.684;2024-01-16T09:14:47;110.78;;;52.53;;
84711;SDS011;74937;44.534;18.684;2024-01-16T09:17:13;100.07;;;50.85;;
84711;SDS011;74937;44.534;18.684;2024-01-16T09:19:39;80.82;;;44.28;;
84711;SDS011;74937;44.534;18.684;2024-01-16T09:22:05;73.70;;;38.10;;
84711;SDS011;74937;44.534;18.684;2024-01-16T09:24:30;74.20;;;39.50;;
84711;SDS011;74937;44.534;18.684;2024-01-16T09:26:56;55.42;;;30.55;;
84711;SDS011;74937;44.534;18.684;2024-01-16T09:29:23;50.97;;;28.30;;
84711;SDS011;74937;44.534;18.684;2024-01-16T09:31:50;62.67;;;34.83;;
84711;SDS011;74937;44.534;18.684;2024-01-16T09:34:16;67.25;;;35.17;;
84711;SDS011;74937;44.534;18.684;2024-01-16T09:39:08;44.83;;;23.52;;
84711;SDS011;74937;44.534;18.684;2024-01-16T09:41:36;43.97;;;23.73;;
84711;SDS011;74937;44.534;18.684;2024-01-16T09:44:03;47.63;;;26.10;;
84711;SDS011;74937;44.534;18.684;2024-01-16T09:46:30;56.47;;;32.25;;
84711;SDS011;74937;44.534;18.684;2024-01-16T09:48:57;52.95;;;29.40;;
84711;SDS011;74937;44.534;18.684;2024-01-16T09:51:25;57.03;;;31.73;;
84711;SDS011;74937;44.534;18.684;2024-01-16T09:53:51;62.72;;;35.67;;
84711;SDS011;74937;44.534;18.684;2024-01-16T09:56:21;60.17;;;32.58;;
84711;SDS011;74937;44.534;18.684;2024-01-16T09:58:50;56.03;;;32.45;;
84711;SDS011;74937;44.534;18.684;2024-01-16T10:01:22;49.15;;;26.60;;
84711;SDS011;74937;44.534;18.684;2024-01-16T10:03:50;40.10;;;25.48;;
84711;SDS011;74937;44.534;18.684;2024-01-16T10:06:16;24.83;;;13.07;;
84711;SDS011;74937;44.534;18.684;2024-01-16T10:08:45;24.88;;;15.00;;
84711;SDS011;74937;44.534;18.684;2024-01-16T10:11:11;32.00;;;20.42;;
84711;SDS011;74937;44.534;18.684;2024-01-16T10:13:37;33.65;;;18.92;;
84711;SDS011;74937;44.534;18.684;2024-01-16T10:18:29;35.75;;;21.08;;
84711;SDS011;74937;44.534;18.684;2024-01-16T10:20:55;39.08;;;20.75;;
84711;SDS011;74937;44.534;18.684;2024-01-16T10:23:28;39.80;;;21.58;;
84711;SDS011;74937;44.534;18.684;2024-01-16T10:26:11;36.40;;;18.83;;
84711;SDS011;74937;44.534;18.684;2024-01-16T10:28:38;34.22;;;19.30;;
84711;SDS011;74937;44.534;18.684;2024-01-16T10:31:05;32.00;;;17.60;;
84711;SDS011;74937;44.534;18.684;2024-01-16T10:33:39;27.55;;;15.75;;
84711;SDS011;74937;44.534;18.684;2024-01-16T10:36:09;22.98;;;14.48;;
84711;SDS011;74937;44.534;18.684;2024-01-16T10:38:40;21.10;;;12.57;;
84711;SDS011;74937;44.534;18.684;2024-01-16T10:41:15;20.75;;;12.02;;
84711;SDS011;74937;44.534;18.684;2024-01-16T10:43:51;25.20;;;14.57;;
84711;SDS011;74937;44.534;18.684;2024-01-16T10:46:35;21.35;;;11.70;;
84711;SDS011;74937;44.534;18.684;2024-01-16T10:49:03;25.27;;;13.70;;
84711;SDS011;74937;44.534;18.684;2024-01-16T10:51:30;23.08;;;12.95;;
84711;SDS011;74937;44.534;18.684;2024-01-16T10:54:00;27.58;;;15.55;;
84711;SDS011;74937;44.534;18.684;2024-01-16T10:56:33;33.53;;;17.63;;
84711;SDS011;74937;44.534;18.684;2024-01-16T10:59:12;28.00;;;15.20;;
84711;SDS011;74937;44.534;18.684;2024-01-16T11:01:45;21.10;;;10.77;;
84711;SDS011;74937;44.534;18.684;2024-01-16T11:04:17;20.63;;;11.00;;
84711;SDS011;74937;44.534;18.684;2024-01-16T11:06:45;16.45;;;8.00;;
84711;SDS011;74937;44.534;18.684;2024-01-16T11:09:15;6.05;;;3.80;;
84711;SDS011;74937;44.534;18.684;2024-01-16T11:11:45;8.95;;;4.10;;
84711;SDS011;74937;44.534;18.684;2024-01-16T11:14:12;6.93;;;4.30;;
84711;SDS011;74937;44.534;18.684;2024-01-16T11:16:40;5.95;;;3.42;;
84711;SDS011;74937;44.534;18.684;2024-01-16T11:19:10;8.40;;;3.55;;
84711;SDS011;74937;44.534;18.684;2024-01-16T11:21:36;6.80;;;3.35;;
84711;SDS011;74937;44.534;18.684;2024-01-16T11:24:03;5.68;;;3.88;;
84711;SDS011;74937;44.534;18.684;2024-01-16T11:26:30;5.38;;;2.80;;
84711;SDS011;74937;44.534;18.684;2024-01-16T11:29:46;4.97;;;3.13;;
84711;SDS011;74937;44.534;18.684;2024-01-16T11:31:59;4.50;;;2.95;;
84711;SDS011;74937;44.534;18.684;2024-01-16T11:37:07;7.55;;;3.25;;
84711;SDS011;74937;44.534;18.684;2024-01-16T11:39:34;5.72;;;3.38;;
84711;SDS011;74937;44.534;18.684;2024-01-16T11:42:00;4.00;;;2.53;;
84711;SDS011;74937;44.534;18.684;2024-01-16T11:44:48;5.10;;;2.75;;
84711;SDS011;74937;44.534;18.684;2024-01-16T11:47:25;3.67;;;2.67;;
84711;SDS011;74937;44.534;18.684;2024-01-16T11:49:51;4.75;;;2.80;;
84711;SDS011;74937;44.534;18.684;2024-01-16T11:52:40;5.82;;;2.70;;
84711;SDS011;74937;44.534;18.684;2024-01-16T12:00:35;3.78;;;2.38;;
84711;SDS011;74937;44.534;18.684;2024-01-16T12:03:05;5.82;;;2.55;;
84711;SDS011;74937;44.534;18.684;2024-01-16T12:05:32;4.60;;;2.60;;
84711;SDS011;74937;44.534;18.684;2024-01-16T12:07:57;4.55;;;2.47;;
84711;SDS011;74937;44.534;18.684;2024-01-16T12:10:24;6.60;;;3.55;;
84711;SDS011;74937;44.534;18.684;2024-01-16T12:12:50;7.90;;;3.70;;
84711;SDS011;74937;44.534;18.684;2024-01-16T12:15:21;5.20;;;2.60;;
84711;SDS011;74937;44.534;18.684;2024-01-16T12:20:19;7.82;;;3.55;;
84711;SDS011;74937;44.534;18.684;2024-01-16T12:23:07;6.20;;;3.38;;
84711;SDS011;74937;44.534;18.684;2024-01-16T12:25:33;5.68;;;3.28;;
84711;SDS011;74937;44.534;18.684;2024-01-16T12:28:01;6.70;;;3.30;;
84711;SDS011;74937;44.534;18.684;2024-01-16T12:30:31;5.47;;;2.63;;
84711;SDS011;74937;44.534;18.684;2024-01-16T12:33:05;4.47;;;2.67;;
84711;SDS011;74937;44.534;18.684;2024-01-16T12:35:35;4.10;;;2.55;;
84711;SDS011;74937;44.534;18.684;2024-01-16T12:38:05;5.72;;;2.30;;
84711;SDS011;74937;44.534;18.684;2024-01-16T12:40:35;4.20;;;2.25;;
84711;SDS011;74937;44.534;18.684;2024-01-16T12:43:05;4.97;;;2.58;;
84711;SDS011;74937;44.534;18.684;2024-01-16T12:45:32;8.52;;;3.35;;
84711;SDS011;74937;44.534;18.684;2024-01-16T12:47:59;5.30;;;2.63;;
84711;SDS011;74937;44.534;18.684;2024-01-16T12:55:26;6.47;;;3.35;;
84711;SDS011;74937;44.534;18.684;2024-01-16T13:00:50;4.13;;;2.58;;
84711;SDS011;74937;44.534;18.684;2024-01-16T13:05:43;3.35;;;2.15;;
84711;SDS011;74937;44.534;18.684;2024-01-16T13:08:16;5.50;;;2.72;;
84711;SDS011;74937;44.534;18.684;2024-01-16T13:13:12;3.35;;;2.33;;
84711;SDS011;74937;44.534;18.684;2024-01-16T13:15:39;5.40;;;2.72;;
84711;SDS011;74937;44.534;18.684;2024-01-16T13:18:05;6.57;;;3.15;;
84711;SDS011;74937;44.534;18.684;2024-01-16T13:20:31;4.70;;;2.55;;
84711;SDS011;74937;44.534;18.684;2024-01-16T13:22:57;4.75;;;2.80;;
84711;SDS011;74937;44.534;18.684;2024-01-16T13:25:23;8.75;;;3.45;;
84711;SDS011;74937;44.534;18.684;2024-01-16T13:27:49;6.47;;;3.45;;
84711;SDS011;74937;44.534;18.684;2024-01-16T13:30:15;9.07;;;2.90;;
84711;SDS011;74937;44.534;18.684;2024-01-16T13:32:42;5.97;;;2.63;;
84711;SDS011;74937;44.534;18.684;2024-01-16T13:35:08;5.85;;;2.85;;
84711;SDS011;74937;44.534;18.684;2024-01-16T13:37:34;6.50;;;3.35;;
84711;SDS011;74937;44.534;18.684;2024-01-16T13:40:05;6.53;;;3.67;;
84711;SDS011;74937;44.534;18.684;2024-01-16T13:42:40;6.90;;;3.88;;
84711;SDS011;74937;44.534;18.684;2024-01-16T13:47:33;7.45;;;2.92;;
84711;SDS011;74937;44.534;18.684;2024-01-16T13:50:04;6.32;;;3.50;;
84711;SDS011;74937;44.534;18.684;2024-01-16T13:52:30;8.63;;;3.97;;
84711;SDS011;74937;44.534;18.684;2024-01-16T13:54:56;6.15;;;3.58;;
84711;SDS011;74937;44.534;18.684;2024-01-16T13:57:27;8.52;;;3.95;;
84711;SDS011;74937;44.534;18.684;2024-01-16T13:59:53;7.18;;;3.88;;
84711;SDS011;74937;44.534;18.684;2024-01-16T14:02:19;8.00;;;4.85;;
84711;SDS011;74937;44.534;18.684;2024-01-16T14:04:45;10.73;;;4.78;;
84711;SDS011;74937;44.534;18.684;2024-01-16T14:07:10;12.13;;;5.38;;
84711;SDS011;74937;44.534;18.684;2024-01-16T14:09:36;6.50;;;4.03;;
84711;SDS011;74937;44.534;18.684;2024-01-16T14:12:02;12.43;;;4.70;;
84711;SDS011;74937;44.534;18.684;2024-01-16T14:14:28;11.15;;;5.47;;
84711;SDS011;74937;44.534;18.684;2024-01-16T14:16:54;13.98;;;6.40;;
84711;SDS011;74937;44.534;18.684;2024-01-16T14:19:20;10.68;;;5.10;;
84711;SDS011;74937;44.534;18.684;2024-01-16T14:21:46;10.30;;;4.75;;
84711;SDS011;74937;44.534;18.684;2024-01-16T14:24:13;10.85;;;5.13;;
84711;SDS011;74937;44.534;18.684;2024-01-16T14:26:41;14.48;;;6.90;;
84711;SDS011;74937;44.534;18.684;2024-01-16T14:29:11;13.10;;;6.32;;
84711;SDS011;74937;44.534;18.684;2024-01-16T14:31:37;17.00;;;8.00;;
84711;SDS011;74937;44.534;18.684;2024-01-16T14:34:02;20.58;;;9.55;;
84711;SDS011;74937;44.534;18.684;2024-01-16T14:36:29;18.23;;;9.05;;
84711;SDS011;74937;44.534;18.684;2024-01-16T14:38:55;25.63;;;12.27;;
84711;SDS011;74937;44.534;18.684;2024-01-16T14:41:21;35.47;;;13.93;;
84711;SDS011;74937;44.534;18.684;2024-01-16T14:43:47;50.00;;;20.67;;
84711;SDS011;74937;44.534;18.684;2024-01-16T14:46:13;39.13;;;16.17;;
84711;SDS011;74937;44.534;18.684;2024-01-16T14:48:44;34.10;;;14.38;;